KGUC

Gunnison-Crested Butte Regional Airport

Gunnison, Colorado, USA
METAR KGUC 140656Z AUTO 00000KT 10SM CLR M21/M22 A3049 RMK AO2 SLP441 T12061222 FZRANO
Observed Flight Rules
Dec-14 @ 06:56 UTC (an hour ago) Visual Flight Rules
Visibility Clouds
10 miles
  • Clear skies
Temperatures Readings
Current -21°C / -6°F
Dewpoint -22°C / -8°F
Humidity 92%
Altimeter 30.49" Hg
Pressure 1044.1 hPa
Elevation 2339
METAR KGUC 140656Z AUTO 00000KT 10SM CLR M21/M22 A3049 RMK AO2 SLP441 T12061222 FZRANO
Observed Flight Rules
Dec-14 @ 06:56 UTC
(an hour ago)
VFR
Clouds
  • Clear skies
Temperature Dewpoint
-21°C / -6°F -22°C / -8°F
Humidity Altimeter Pressure
92% 30.49" Hg 1044.1 hPa